Terminal Aerodrome Forecast
Issued by NWS

Home | Current Version | Previous Version | Text Only | Print | Product List | Glossary On
Versions: 1 2 3 4 5 6 7 8 9 10 11 12 13 14 15 16 17 18 19 20 21 22 23 24 25 26 27 28 29 30
000
FTUS43 KIND 301411 AAA
TAFLAF
TAF AMD
KLAF 301411Z 3014/3112 11010KT P6SM VCTS BKN035CB
      TEMPO 3014/3018 3SM -TSRA BR
     FM301800 17009KT P6SM SHRA VCTS BKN050CB
      TEMPO 3021/3024 4SM TS OVC040CB
     FM310000 18006KT P6SM -SHRA VCTS OVC060CB
     FM310700 24006KT P6SM BKN015=

USA.gov is the U.S. government's official web portal to all federal, state and local government web resources and services.